Time;durP1;ratioP1;P1;durP2;ratioP2;P2;SDS_P1;SDS_P2;PMS_P1;PMS_P2;Temp;Humidity;BMP_temperature;BMP_pressure;BME280_temperature;BME280_humidity;BME280_pressure;Samples;Min_cycle;Max_cycle;Signal;HPM_P1;HPM_P2
2023/04/24 00:01:52;;;;;;;10.70;2.50;;;11.00;99.90;;;;;;4996153;28;20207;-91
2023/04/24 00:04:25;;;;;;;10.30;2.50;;;10.90;99.90;;;;;;4968105;28;20221;-91
2023/04/24 00:06:59;;;;;;;8.33;3.03;;;11.00;99.90;;;;;;4979182;28;20638;-91
2023/04/24 00:09:31;;;;;;;10.13;2.87;;;10.90;99.90;;;;;;4979344;28;20239;-91
2023/04/24 00:12:04;;;;;;;9.60;2.30;;;10.90;99.90;;;;;;4976895;28;20240;-90
2023/04/24 00:14:37;;;;;;;13.70;3.50;;;10.80;99.90;;;;;;4975225;28;20210;-90
2023/04/24 00:17:08;;;;;;;7.90;2.70;;;10.80;99.90;;;;;;4975308;28;20218;-90
2023/04/24 00:19:40;;;;;;;8.00;2.70;;;10.70;99.90;;;;;;4973379;28;20624;-90
2023/04/24 00:22:13;;;;;;;10.87;2.83;;;10.70;99.90;;;;;;4974236;28;20218;-90
2023/04/24 00:24:44;;;;;;;8.73;2.47;;;10.70;99.90;;;;;;4975430;28;20203;-90
2023/04/24 00:27:17;;;;;;;8.03;2.83;;;10.80;99.90;;;;;;4975867;28;20639;-92
2023/04/24 00:29:49;;;;;;;10.10;3.07;;;10.60;99.90;;;;;;4974884;28;20230;-90
2023/04/24 00:32:20;;;;;;;11.90;2.80;;;10.60;99.90;;;;;;4974299;28;20200;-91
2023/04/24 00:34:52;;;;;;;10.47;2.57;;;10.60;99.90;;;;;;4967648;28;20289;-89
2023/04/24 00:37:24;;;;;;;11.97;3.00;;;10.60;99.90;;;;;;4979345;28;20207;-91
2023/04/24 00:39:55;;;;;;;7.57;3.00;;;10.50;99.90;;;;;;4977366;28;20195;-91
2023/04/24 00:42:29;;;;;;;6.10;2.77;;;10.40;99.90;;;;;;4977224;28;20577;-90
2023/04/24 00:45:06;;;;;;;11.03;3.23;;;10.30;99.90;;;;;;4978173;28;20211;-91
2023/04/24 00:47:38;;;;;;;11.27;2.73;;;10.20;99.90;;;;;;4976127;28;20233;-91
2023/04/24 00:50:11;;;;;;;11.13;2.90;;;10.10;99.90;;;;;;4981029;28;20241;-90
2023/04/24 00:52:43;;;;;;;8.97;3.23;;;10.10;99.90;;;;;;4979696;28;20681;-91
2023/04/24 00:55:14;;;;;;;9.97;3.10;;;10.20;99.90;;;;;;4980468;28;20297;-90
2023/04/24 00:57:48;;;;;;;8.90;2.90;;;10.10;99.90;;;;;;4979906;28;20650;-90
2023/04/24 01:00:21;;;;;;;7.60;2.67;;;10.10;99.90;;;;;;4980153;28;20207;-90
2023/04/24 01:02:54;;;;;;;8.90;3.27;;;10.10;99.90;;;;;;4979268;28;20211;-90
2023/04/24 01:05:25;;;;;;;10.53;3.57;;;10.10;99.90;;;;;;4986150;28;20195;-90
2023/04/24 01:07:57;;;;;;;11.33;3.07;;;10.10;99.90;;;;;;4999799;28;20205;-90
2023/04/24 01:10:31;;;;;;;7.80;3.00;;;10.00;99.90;;;;;;4998536;28;20210;-91
2023/04/24 01:13:05;;;;;;;10.03;2.97;;;9.90;99.90;;;;;;4962255;28;20257;-90
2023/04/24 01:15:37;;;;;;;8.63;3.07;;;9.80;99.90;;;;;;4962931;29;20208;-91
2023/04/24 01:18:09;;;;;;;12.60;3.03;;;9.80;99.90;;;;;;4960425;28;20216;-90
2023/04/24 01:20:43;;;;;;;8.90;3.07;;;9.90;99.90;;;;;;4960684;28;20231;-90
2023/04/24 01:23:18;;;;;;;14.10;3.77;;;9.80;99.90;;;;;;4960013;28;20662;-90
2023/04/24 01:25:51;;;;;;;10.57;2.80;;;9.80;99.90;;;;;;4959952;28;20289;-90
2023/04/24 01:28:23;;;;;;;13.87;3.47;;;9.80;99.90;;;;;;4958289;28;20669;-90
2023/04/24 01:30:55;;;;;;;10.97;3.27;;;9.80;99.90;;;;;;4959558;28;20706;-90
2023/04/24 01:33:27;;;;;;;12.77;3.80;;;9.70;99.90;;;;;;4959838;28;20212;-91
2023/04/24 01:35:58;;;;;;;13.27;3.47;;;9.70;99.90;;;;;;4959256;28;20214;-91
2023/04/24 01:38:31;;;;;;;11.27;3.27;;;9.80;99.90;;;;;;4958379;28;20266;-90
2023/04/24 01:41:03;;;;;;;11.13;3.70;;;9.80;99.90;;;;;;4974024;28;20269;-90
2023/04/24 01:43:35;;;;;;;10.73;3.30;;;9.70;99.90;;;;;;4978775;28;20596;-91
2023/04/24 01:46:08;;;;;;;10.27;3.30;;;9.70;99.90;;;;;;4978199;28;20677;-89
2023/04/24 01:48:39;;;;;;;17.93;3.57;;;9.70;99.90;;;;;;4963405;28;20224;-91
2023/04/24 01:51:17;;;;;;;11.37;3.90;;;9.60;99.90;;;;;;4958602;28;20236;-91
2023/04/24 01:53:50;;;;;;;11.53;3.43;;;9.70;99.90;;;;;;4958772;28;20242;-92
2023/04/24 01:56:23;;;;;;;11.60;3.30;;;9.70;99.90;;;;;;4958697;28;20212;-91
2023/04/24 01:58:56;;;;;;;14.30;4.17;;;9.70;99.90;;;;;;4964041;28;20218;-91
2023/04/24 02:01:28;;;;;;;10.47;3.53;;;9.60;99.90;;;;;;4977813;28;20207;-91
2023/04/24 02:03:59;;;;;;;11.13;3.67;;;9.60;99.90;;;;;;4978216;28;20203;-90
2023/04/24 02:06:31;;;;;;;13.00;3.70;;;9.50;99.90;;;;;;4978067;28;20231;-90
2023/04/24 02:09:05;;;;;;;12.93;3.77;;;9.60;99.90;;;;;;4975729;28;20211;-90
2023/04/24 02:11:36;;;;;;;13.80;3.73;;;9.50;99.90;;;;;;4977582;28;20238;-91
2023/04/24 02:14:08;;;;;;;11.57;3.43;;;9.50;99.90;;;;;;4962784;28;20203;-91
2023/04/24 02:16:39;;;;;;;11.03;4.07;;;9.50;99.90;;;;;;4957987;28;20219;-91
2023/04/24 02:19:11;;;;;;;11.87;3.80;;;9.50;99.90;;;;;;4957915;28;20737;-91
2023/04/24 02:21:42;;;;;;;16.90;4.10;;;9.50;99.90;;;;;;4960172;28;20223;-90
2023/04/24 02:24:15;;;;;;;6.77;3.13;;;9.40;99.90;;;;;;4957456;29;20238;-91
2023/04/24 02:26:46;;;;;;;16.13;4.17;;;9.40;99.90;;;;;;4957892;28;20216;-89
2023/04/24 02:29:18;;;;;;;11.10;3.33;;;9.40;99.90;;;;;;4957163;28;20218;-90
2023/04/24 02:31:50;;;;;;;11.17;3.60;;;9.40;99.90;;;;;;4957642;28;20239;-90
2023/04/24 02:34:22;;;;;;;17.90;3.87;;;9.40;99.90;;;;;;4957580;28;20208;-92
2023/04/24 02:36:54;;;;;;;12.40;3.57;;;9.40;99.90;;;;;;4958649;28;20221;-90
2023/04/24 02:39:28;;;;;;;11.83;3.73;;;9.30;99.90;;;;;;4963321;28;20665;-90
2023/04/24 02:42:00;;;;;;;13.20;4.37;;;9.30;99.90;;;;;;4978028;28;20211;-91
2023/04/24 02:44:31;;;;;;;12.30;3.70;;;9.30;99.90;;;;;;4977343;28;20281;-90
2023/04/24 02:47:03;;;;;;;12.20;3.83;;;9.30;99.90;;;;;;4976837;28;20203;-90
2023/04/24 02:49:34;;;;;;;20.27;4.63;;;9.30;99.90;;;;;;4976150;28;20214;-90
2023/04/24 02:52:06;;;;;;;8.73;3.77;;;9.30;99.90;;;;;;4976152;28;20709;-92
2023/04/24 02:54:43;;;;;;;15.03;4.10;;;9.30;99.90;;;;;;4976026;28;20233;-91
2023/04/24 02:57:14;;;;;;;12.73;4.03;;;9.30;99.90;;;;;;4976574;28;20214;-91
2023/04/24 02:59:46;;;;;;;14.30;4.03;;;9.20;99.90;;;;;;4975170;28;20206;-91
2023/04/24 03:02:18;;;;;;;8.83;3.33;;;9.30;99.90;;;;;;4977546;28;20234;-89
2023/04/24 03:04:50;;;;;;;10.07;3.87;;;9.30;99.90;;;;;;4977542;28;20265;-90
2023/04/24 03:07:23;;;;;;;8.97;3.00;;;9.20;99.90;;;;;;4976351;28;20203;-89
2023/04/24 03:09:58;;;;;;;14.47;3.90;;;9.20;99.90;;;;;;4970531;28;20207;-92
2023/04/24 03:12:29;;;;;;;8.47;3.50;;;9.20;99.90;;;;;;4974016;28;20228;-91
2023/04/24 03:15:00;;;;;;;10.87;3.53;;;9.20;99.90;;;;;;4992955;28;20225;-92
2023/04/24 03:17:31;;;;;;;12.83;3.90;;;9.10;99.90;;;;;;4978982;28;20219;-91
2023/04/24 03:20:05;;;;;;;7.80;2.90;;;9.10;99.90;;;;;;4960064;28;20200;-92
2023/04/24 03:22:37;;;;;;;11.97;3.63;;;9.20;99.90;;;;;;4963053;28;20218;-90
2023/04/24 03:25:12;;;;;;;12.47;3.13;;;9.20;99.90;;;;;;4976640;28;20214;-93
2023/04/24 03:27:44;;;;;;;8.20;3.30;;;9.20;99.90;;;;;;4974224;28;20215;-92
2023/04/24 03:30:16;;;;;;;8.60;3.03;;;9.20;99.90;;;;;;4976616;28;20203;-91
2023/04/24 03:32:48;;;;;;;7.17;2.87;;;9.20;99.90;;;;;;4975985;28;20362;-91
2023/04/24 03:35:21;;;;;;;10.87;3.27;;;9.20;99.90;;;;;;4975817;28;20207;-91
2023/04/24 03:37:52;;;;;;;10.03;3.00;;;9.10;99.90;;;;;;4977724;28;20203;-91
2023/04/24 03:40:29;;;;;;;6.40;3.03;;;9.10;99.90;;;;;;4979476;28;20618;-91
2023/04/24 03:43:01;;;;;;;11.47;3.37;;;9.10;99.90;;;;;;4959165;29;20208;-91
2023/04/24 03:45:32;;;;;;;8.77;2.73;;;9.10;99.90;;;;;;4960603;28;20302;-92
2023/04/24 03:48:05;;;;;;;10.47;2.63;;;9.10;99.90;;;;;;4972214;28;20234;-92
2023/04/24 03:50:36;;;;;;;7.40;2.60;;;9.10;99.90;;;;;;4977953;28;20211;-92
2023/04/24 03:53:08;;;;;;;6.37;2.60;;;9.10;99.90;;;;;;4976041;28;20219;-92
2023/04/24 03:55:42;;;;;;;4.03;2.63;;;9.10;99.90;;;;;;4974644;28;20219;-92
2023/04/24 03:58:14;;;;;;;8.90;2.77;;;9.10;99.90;;;;;;4976848;28;20211;-93
2023/04/24 04:00:47;;;;;;;6.23;2.87;;;9.20;99.90;;;;;;4956573;28;20211;-92
2023/04/24 04:03:21;;;;;;;6.23;2.47;;;9.20;99.90;;;;;;4958103;29;20217;-92
2023/04/24 04:05:54;;;;;;;7.67;2.47;;;9.10;99.90;;;;;;4959825;29;20216;-92
2023/04/24 04:08:26;;;;;;;6.00;2.27;;;9.20;99.90;;;;;;4966489;28;20216;-92
2023/04/24 04:10:59;;;;;;;4.77;2.47;;;9.10;99.90;;;;;;4977098;28;20677;-92
2023/04/24 04:13:34;;;;;;;8.40;2.37;;;9.10;99.90;;;;;;4975890;28;20664;-92
2023/04/24 04:16:05;;;;;;;7.10;2.50;;;9.10;99.90;;;;;;4973975;28;20215;-92
2023/04/24 04:18:37;;;;;;;6.67;2.47;;;9.10;99.90;;;;;;4973982;28;20253;-93
2023/04/24 04:21:09;;;;;;;7.93;3.27;;;9.00;99.90;;;;;;4975163;28;20298;-91
2023/04/24 04:23:41;;;;;;;11.77;2.80;;;9.00;99.90;;;;;;4989349;28;20222;-93
2023/04/24 04:26:16;;;;;;;10.00;3.17;;;8.90;99.90;;;;;;4969676;28;20211;-92
2023/04/24 04:28:48;;;;;;;11.10;2.90;;;8.80;99.90;;;;;;4973629;28;20210;-91
2023/04/24 04:31:20;;;;;;;6.87;2.77;;;8.80;99.90;;;;;;4980606;28;20215;-93
2023/04/24 04:33:52;;;;;;;6.73;2.90;;;8.90;99.90;;;;;;4971102;28;20226;-91
2023/04/24 04:36:23;;;;;;;7.83;2.43;;;8.70;99.90;;;;;;4972057;28;20219;-91
2023/04/24 04:38:56;;;;;;;8.97;2.50;;;8.70;99.90;;;;;;4965969;28;20219;-91
2023/04/24 04:41:30;;;;;;;6.90;2.70;;;8.60;99.90;;;;;;4954409;28;20207;-91
2023/04/24 04:44:04;;;;;;;7.77;2.70;;;8.60;99.90;;;;;;4966035;28;20214;-92
2023/04/24 04:46:37;;;;;;;10.17;2.87;;;8.50;99.90;;;;;;4979924;28;20647;-93
2023/04/24 04:49:09;;;;;;;10.93;3.23;;;8.40;99.90;;;;;;4982669;28;20199;-92
2023/04/24 04:51:41;;;;;;;5.43;3.47;;;8.40;99.90;;;;;;4976836;28;20227;-93
2023/04/24 04:54:13;;;;;;;5.30;2.73;;;8.30;99.90;;;;;;4980067;28;20309;-92
2023/04/24 04:56:47;;;;;;;9.77;2.97;;;8.30;99.90;;;;;;4974439;28;20215;-92
2023/04/24 04:59:19;;;;;;;5.70;2.60;;;8.30;99.90;;;;;;4959885;28;20929;-92
2023/04/24 05:01:52;;;;;;;6.73;3.07;;;8.30;99.90;;;;;;4968279;28;20278;-93
2023/04/24 05:04:26;;;;;;;7.07;3.10;;;8.20;99.90;;;;;;4974428;28;20215;-93
2023/04/24 05:06:58;;;;;;;6.30;2.73;;;8.20;99.90;;;;;;4968723;28;20688;-93
2023/04/24 05:09:30;;;;;;;7.90;3.27;;;8.20;99.90;;;;;;4971040;28;20211;-94
2023/04/24 05:12:04;;;;;;;9.77;3.00;;;8.20;99.90;;;;;;4984030;28;20318;-93
2023/04/24 05:14:37;;;;;;;5.90;3.07;;;8.20;99.90;;;;;;4979522;28;20289;-93
2023/04/24 05:17:09;;;;;;;7.20;3.00;;;8.20;99.90;;;;;;4981122;28;20250;-93
2023/04/24 05:19:41;;;;;;;6.17;2.73;;;8.20;99.90;;;;;;4982431;28;20199;-93
2023/04/24 05:22:14;;;;;;;6.77;3.00;;;8.20;99.90;;;;;;4994648;28;20209;-93
2023/04/24 05:24:45;;;;;;;8.23;3.20;;;8.10;99.90;;;;;;4994001;28;20250;-93
2023/04/24 05:27:18;;;;;;;6.23;3.20;;;8.20;99.90;;;;;;4980644;28;20219;-94
2023/04/24 05:29:50;;;;;;;4.57;3.13;;;8.10;99.90;;;;;;4983668;28;20225;-92
2023/04/24 05:32:22;;;;;;;5.40;3.00;;;8.10;99.90;;;;;;4994281;28;20295;-92
2023/04/24 05:34:54;;;;;;;7.77;2.93;;;8.10;99.90;;;;;;4996113;28;20209;-87
2023/04/24 05:37:26;;;;;;;6.60;3.30;;;8.00;99.90;;;;;;4991133;28;20207;-93
2023/04/24 05:39:58;;;;;;;7.23;3.63;;;8.00;99.90;;;;;;4991078;28;20211;-93
2023/04/24 05:42:32;;;;;;;5.67;3.40;;;7.90;99.90;;;;;;4983890;28;20604;-92
2023/04/24 05:45:04;;;;;;;7.37;3.47;;;7.90;99.90;;;;;;4982631;28;20203;-93
2023/04/24 05:47:35;;;;;;;10.83;3.93;;;7.90;99.90;;;;;;4970990;28;20597;-91
2023/04/24 05:50:09;;;;;;;9.67;3.43;;;7.90;99.90;;;;;;4989739;28;20205;-90
2023/04/24 05:52:40;;;;;;;11.90;3.63;;;7.90;99.90;;;;;;4980998;28;20270;-91
2023/04/24 05:55:12;;;;;;;7.23;3.80;;;7.90;99.90;;;;;;4967344;28;20298;-93
2023/04/24 05:57:47;;;;;;;7.33;3.57;;;7.80;99.90;;;;;;4979380;28;20233;-93
2023/04/24 06:00:19;;;;;;;12.47;3.90;;;7.80;99.90;;;;;;4981438;28;20203;-91
2023/04/24 06:02:54;;;;;;;7.53;3.23;;;7.80;99.90;;;;;;4971386;28;20212;-92
2023/04/24 06:05:25;;;;;;;14.40;4.17;;;7.80;99.90;;;;;;4975179;28;20258;-92
2023/04/24 06:07:58;;;;;;;7.63;3.73;;;7.70;99.90;;;;;;4971923;28;20225;-93
2023/04/24 06:10:30;;;;;;;5.80;3.53;;;7.80;99.90;;;;;;4971009;28;20207;-92
2023/04/24 06:13:04;;;;;;;6.97;3.80;;;7.80;99.90;;;;;;4975879;28;20600;-91
2023/04/24 06:15:35;;;;;;;7.03;3.33;;;7.70;99.90;;;;;;4978646;28;20206;-93
2023/04/24 06:18:07;;;;;;;8.27;3.53;;;7.70;99.90;;;;;;4957790;28;20677;-93
2023/04/24 06:20:39;;;;;;;5.90;3.40;;;7.70;99.90;;;;;;4968384;28;20226;-93
2023/04/24 06:23:11;;;;;;;5.33;3.40;;;7.80;99.90;;;;;;4977384;28;20215;-91
2023/04/24 06:25:43;;;;;;;4.67;3.23;;;7.80;99.90;;;;;;4976249;28;20274;-92
2023/04/24 06:28:18;;;;;;;5.83;3.10;;;7.70;99.90;;;;;;4956137;28;20714;-93
2023/04/24 06:30:50;;;;;;;6.63;3.07;;;7.70;99.90;;;;;;4957941;28;20298;-93
2023/04/24 06:33:21;;;;;;;6.57;2.67;;;7.70;99.90;;;;;;4957456;28;20321;-93
2023/04/24 06:35:53;;;;;;;4.97;3.00;;;7.70;99.90;;;;;;4967145;28;20203;-93
2023/04/24 06:38:25;;;;;;;5.97;2.80;;;7.70;99.90;;;;;;4966518;28;20300;-94
2023/04/24 06:40:57;;;;;;;5.60;2.80;;;7.70;99.90;;;;;;4971957;28;20230;-93
2023/04/24 06:43:31;;;;;;;4.77;3.03;;;7.70;99.90;;;;;;4977101;28;20239;-91
2023/04/24 06:46:04;;;;;;;6.77;2.80;;;7.70;99.90;;;;;;4975391;28;20257;-93
2023/04/24 06:48:35;;;;;;;4.97;2.57;;;7.70;99.90;;;;;;4975041;28;20203;-94
2023/04/24 06:51:07;;;;;;;7.50;3.13;;;7.70;99.90;;;;;;4963928;28;20713;-92
2023/04/24 06:53:39;;;;;;;4.37;2.80;;;7.70;99.90;;;;;;4962264;28;20290;-93
2023/04/24 06:56:11;;;;;;;4.57;2.67;;;7.70;99.90;;;;;;4976813;28;20277;-93
2023/04/24 06:58:45;;;;;;;6.23;3.00;;;7.70;99.90;;;;;;4975170;28;20736;-93
2023/04/24 07:01:17;;;;;;;5.77;2.83;;;7.70;99.90;;;;;;4976261;28;20270;-92
2023/04/24 07:03:48;;;;;;;5.63;2.90;;;7.70;99.90;;;;;;4977966;28;20329;-92
2023/04/24 07:06:22;;;;;;;6.77;3.00;;;7.70;99.90;;;;;;4966207;28;20204;-92
2023/04/24 07:08:54;;;;;;;6.70;3.03;;;7.70;99.90;;;;;;4975579;28;20207;-93
2023/04/24 07:11:29;;;;;;;5.87;2.50;;;7.70;99.90;;;;;;4977443;28;20214;-92
2023/04/24 07:14:03;;;;;;;4.10;2.50;;;7.70;99.90;;;;;;4974901;28;20234;-93
2023/04/24 07:16:35;;;;;;;4.43;1.87;;;7.60;99.90;;;;;;4974858;28;20242;-92
2023/04/24 07:19:07;;;;;;;3.67;2.00;;;7.70;99.90;;;;;;4976542;28;20265;-92
2023/04/24 07:21:39;;;;;;;3.33;2.20;;;7.70;99.90;;;;;;4976012;28;20246;-93
2023/04/24 07:24:12;;;;;;;4.23;2.03;;;7.70;99.90;;;;;;4977000;28;20206;-93
2023/04/24 07:26:45;;;;;;;3.47;1.80;;;7.70;99.90;;;;;;4983888;28;20505;-93
2023/04/24 07:29:18;;;;;;;3.03;1.90;;;7.60;99.90;;;;;;4989234;28;20246;-91
2023/04/24 07:31:49;;;;;;;1.83;1.57;;;7.60;99.90;;;;;;4985854;28;20199;-92
2023/04/24 07:34:22;;;;;;;3.03;1.87;;;7.60;99.90;;;;;;4981035;28;20230;-92
2023/04/24 07:36:53;;;;;;;2.60;1.67;;;7.70;99.90;;;;;;4985113;28;20227;-91
2023/04/24 07:39:24;;;;;;;3.87;1.40;;;7.60;99.90;;;;;;4975189;28;20245;-92
2023/04/24 07:41:56;;;;;;;7.17;1.90;;;7.60;99.90;;;;;;4961294;28;20834;-93
2023/04/24 07:44:30;;;;;;;3.73;2.00;;;7.60;99.90;;;;;;4975684;28;20277;-91
2023/04/24 07:47:01;;;;;;;3.60;1.50;;;7.60;99.90;;;;;;4965996;28;20270;-92
2023/04/24 07:49:34;;;;;;;2.37;1.60;;;7.50;99.90;;;;;;4974734;28;20285;-91
2023/04/24 07:52:06;;;;;;;3.90;1.97;;;7.50;99.90;;;;;;4975599;28;20266;-91
2023/04/24 07:54:38;;;;;;;3.17;1.57;;;7.50;99.90;;;;;;4975177;28;20234;-91
2023/04/24 07:57:10;;;;;;;3.67;1.40;;;7.50;99.90;;;;;;4967927;28;20207;-91
2023/04/24 07:59:45;;;;;;;4.63;1.40;;;7.50;99.90;;;;;;4963301;28;20243;-93
2023/04/24 08:02:17;;;;;;;3.47;1.50;;;7.50;99.90;;;;;;5004759;28;20202;-92
2023/04/24 08:04:49;;;;;;;3.07;1.30;;;7.50;99.90;;;;;;4975393;28;20207;-91
2023/04/24 08:07:21;;;;;;;1.53;1.10;;;7.50;99.90;;;;;;4970888;28;20207;-91
2023/04/24 08:09:52;;;;;;;3.13;1.00;;;7.40;99.90;;;;;;4971959;28;20204;-92
2023/04/24 08:12:24;;;;;;;1.57;1.20;;;7.50;99.90;;;;;;4966724;28;20215;-93
2023/04/24 08:14:57;;;;;;;1.83;1.00;;;7.40;99.90;;;;;;4955274;28;20709;-92
2023/04/24 08:17:28;;;;;;;3.33;1.00;;;7.40;99.90;;;;;;4971538;28;20270;-93
2023/04/24 08:20:01;;;;;;;1.63;0.87;;;7.30;99.90;;;;;;4973793;28;20685;-92
2023/04/24 08:22:32;;;;;;;5.23;1.37;;;7.30;99.90;;;;;;4974232;28;20218;-93
2023/04/24 08:25:04;;;;;;;1.20;0.90;;;7.30;99.90;;;;;;4972352;28;20294;-91
2023/04/24 08:27:36;;;;;;;1.93;0.80;;;7.30;99.90;;;;;;4970732;28;20265;-92
2023/04/24 08:30:11;;;;;;;2.97;0.93;;;7.30;99.90;;;;;;4973954;28;20202;-94
2023/04/24 08:32:43;;;;;;;1.53;0.70;;;7.30;99.90;;;;;;4974417;28;20215;-93
2023/04/24 08:35:14;;;;;;;0.63;0.60;;;7.30;99.90;;;;;;4974282;28;20709;-94
2023/04/24 08:37:46;;;;;;;1.10;0.80;;;7.20;99.90;;;;;;4970926;28;20232;-93
2023/04/24 08:40:19;;;;;;;1.97;0.90;;;7.20;99.90;;;;;;4972597;28;20211;-89
2023/04/24 08:42:52;;;;;;;0.90;0.50;;;7.20;99.90;;;;;;4973131;28;20219;-93
2023/04/24 08:45:27;;;;;;;1.03;0.87;;;7.10;99.90;;;;;;4955228;29;20247;-94
2023/04/24 08:48:01;;;;;;;1.13;0.70;;;7.10;99.90;;;;;;4973863;28;20217;-91
2023/04/24 08:50:36;;;;;;;1.23;0.70;;;7.10;99.90;;;;;;4973398;28;20680;-91
2023/04/24 08:53:08;;;;;;;2.43;0.50;;;7.10;99.90;;;;;;4969231;28;20694;-92
2023/04/24 08:55:41;;;;;;;1.30;0.40;;;7.10;99.90;;;;;;4958246;28;20235;-92
2023/04/24 08:58:13;;;;;;;0.50;0.43;;;7.10;99.90;;;;;;4975514;28;20207;-91
2023/04/24 09:00:48;;;;;;;1.07;0.57;;;7.10;99.90;;;;;;4974591;28;20215;-92
2023/04/24 09:03:20;;;;;;;0.50;0.50;;;7.10;99.90;;;;;;4973849;28;20634;-91
2023/04/24 09:05:52;;;;;;;1.63;0.50;;;7.10;99.90;;;;;;4974173;28;20246;-91
2023/04/24 09:08:26;;;;;;;0.40;0.37;;;7.10;99.90;;;;;;4973348;28;20662;-93
2023/04/24 09:10:58;;;;;;;0.57;0.47;;;7.10;99.90;;;;;;4978545;28;20335;-91
2023/04/24 09:13:29;;;;;;;1.07;0.40;;;7.10;99.90;;;;;;4978128;28;20572;-92
2023/04/24 09:16:03;;;;;;;0.60;0.40;;;7.10;99.90;;;;;;4979349;28;20301;-92
2023/04/24 09:18:35;;;;;;;1.43;0.73;;;7.00;99.90;;;;;;4979353;28;20266;-92
2023/04/24 09:21:10;;;;;;;1.27;0.50;;;7.00;99.90;;;;;;4978641;28;20221;-92
2023/04/24 09:23:43;;;;;;;0.47;0.40;;;7.10;99.90;;;;;;4978832;28;20206;-93
2023/04/24 09:26:14;;;;;;;0.57;0.47;;;7.00;99.90;;;;;;4981558;28;20575;-93
2023/04/24 09:28:46;;;;;;;0.50;0.50;;;7.10;99.90;;;;;;4982883;28;20565;-92
2023/04/24 09:31:22;;;;;;;0.90;0.47;;;7.00;99.90;;;;;;4990117;28;20217;-92
2023/04/24 09:33:59;;;;;;;0.43;0.43;;;7.10;99.90;;;;;;4987908;28;20274;-92
2023/04/24 09:36:33;;;;;;;1.23;0.60;;;7.10;99.90;;;;;;4967576;28;20295;-92
2023/04/24 09:39:07;;;;;;;0.60;0.60;;;7.10;99.90;;;;;;4966181;28;20613;-92
2023/04/24 09:41:46;;;;;;;1.53;0.50;;;7.20;99.90;;;;;;4964074;28;20203;-93
2023/04/24 09:44:20;;;;;;;1.90;0.53;;;7.10;99.90;;;;;;4977845;28;20269;-91
2023/04/24 09:46:55;;;;;;;1.20;0.50;;;7.20;99.90;;;;;;4977832;28;20217;-93
2023/04/24 09:49:28;;;;;;;1.83;0.50;;;7.20;99.90;;;;;;4976679;28;20221;-90
2023/04/24 09:52:06;;;;;;;1.43;0.67;;;7.20;99.90;;;;;;4977931;28;20642;-92
2023/04/24 09:54:38;;;;;;;1.17;0.50;;;7.20;99.90;;;;;;4977611;28;20289;-92
2023/04/24 09:57:10;;;;;;;1.80;0.50;;;7.20;99.90;;;;;;4965888;28;20212;-91
2023/04/24 09:59:47;;;;;;;1.57;0.50;;;7.20;99.90;;;;;;4969961;28;20211;-92
2023/04/24 10:02:22;;;;;;;2.23;0.60;;;7.20;99.90;;;;;;4976500;28;20217;-92
2023/04/24 10:04:59;;;;;;;0.50;0.50;;;7.30;99.90;;;;;;4977545;28;20222;-90
2023/04/24 10:07:31;;;;;;;0.50;0.50;;;7.30;99.90;;;;;;4976603;28;20211;-92
2023/04/24 10:10:03;;;;;;;1.57;0.70;;;7.20;99.90;;;;;;4977244;28;20217;-91
2023/04/24 10:12:34;;;;;;;0.60;0.50;;;7.20;99.90;;;;;;4964300;28;20641;-93
2023/04/24 10:15:09;;;;;;;1.37;0.40;;;7.20;99.90;;;;;;4957655;29;20231;-92
2023/04/24 10:17:44;;;;;;;0.87;0.50;;;7.30;99.90;;;;;;4957690;28;20217;-91
2023/04/24 10:20:16;;;;;;;1.83;0.73;;;7.30;99.90;;;;;;4970941;28;20202;-91
2023/04/24 10:22:50;;;;;;;1.13;0.50;;;7.30;99.90;;;;;;4976657;28;20278;-92
2023/04/24 10:25:23;;;;;;;0.83;0.67;;;7.20;99.90;;;;;;4975207;28;20250;-91
2023/04/24 10:27:59;;;;;;;0.90;0.60;;;7.20;99.90;;;;;;4975839;28;20277;-91
2023/04/24 10:30:34;;;;;;;3.50;0.70;;;7.20;99.90;;;;;;4976762;28;20673;-91
2023/04/24 10:33:09;;;;;;;2.40;0.93;;;7.20;99.90;;;;;;4977101;28;20203;-92
2023/04/24 10:35:44;;;;;;;1.00;0.90;;;7.20;99.90;;;;;;4970399;28;20770;-92
2023/04/24 10:38:18;;;;;;;1.57;0.97;;;7.30;99.90;;;;;;4977529;28;20207;-92
2023/04/24 10:40:50;;;;;;;1.33;0.57;;;7.30;99.90;;;;;;4976891;28;20639;-92
2023/04/24 10:43:23;;;;;;;1.30;0.50;;;7.20;99.90;;;;;;4976981;28;20262;-92
2023/04/24 10:46:04;;;;;;;0.70;0.50;;;7.20;99.90;;;;;;4976383;28;20278;-91
2023/04/24 10:48:43;;;;;;;0.37;0.37;;;7.20;99.90;;;;;;4976614;28;20219;-93
2023/04/24 10:51:15;;;;;;;0.70;0.50;;;7.20;99.90;;;;;;4978106;28;20226;-92
2023/04/24 10:53:47;;;;;;;0.67;0.60;;;7.20;99.90;;;;;;4978466;28;20207;-93
2023/04/24 10:56:19;;;;;;;1.20;0.60;;;7.20;99.90;;;;;;4977009;28;20234;-92
2023/04/24 10:58:54;;;;;;;2.37;0.70;;;7.20;99.90;;;;;;4975602;28;20578;-93
2023/04/24 11:01:31;;;;;;;0.60;0.50;;;7.20;99.90;;;;;;4975186;28;20731;-91
2023/04/24 11:04:06;;;;;;;2.03;0.53;;;7.20;99.90;;;;;;4976690;28;20218;-92
2023/04/24 11:06:38;;;;;;;0.60;0.57;;;7.30;99.90;;;;;;4976889;28;20214;-91
2023/04/24 11:09:12;;;;;;;1.70;0.70;;;7.30;99.90;;;;;;4970506;28;20211;-91
2023/04/24 11:11:48;;;;;;;0.67;0.50;;;7.30;99.90;;;;;;4965565;28;20661;-91
2023/04/24 11:14:21;;;;;;;1.00;0.57;;;7.20;99.90;;;;;;4976906;28;20244;-92
2023/04/24 11:16:55;;;;;;;1.03;0.60;;;7.30;99.90;;;;;;4977452;28;20242;-91
2023/04/24 11:19:30;;;;;;;2.63;0.40;;;7.30;99.90;;;;;;4978846;28;20214;-91
2023/04/24 11:22:03;;;;;;;1.10;0.50;;;7.30;99.90;;;;;;4976001;28;20256;-92
2023/04/24 11:24:40;;;;;;;0.60;0.50;;;7.30;99.90;;;;;;4956051;28;20670;-91
2023/04/24 11:27:16;;;;;;;1.50;0.40;;;7.30;99.90;;;;;;4966135;28;20210;-91
2023/04/24 11:29:49;;;;;;;1.90;0.50;;;7.30;99.90;;;;;;4975984;28;20261;-91
2023/04/24 11:32:31;;;;;;;0.40;0.40;;;7.30;99.90;;;;;;4993777;28;20209;-92
2023/04/24 11:35:08;;;;;;;0.97;0.47;;;7.30;99.90;;;;;;4989057;28;20218;-92
2023/04/24 11:37:41;;;;;;;0.97;0.30;;;7.20;99.90;;;;;;4977363;28;20237;-91
2023/04/24 11:40:15;;;;;;;0.50;0.30;;;7.20;99.90;;;;;;4958976;28;20219;-92
2023/04/24 11:42:48;;;;;;;2.97;0.80;;;7.20;99.90;;;;;;4969595;28;20640;-92
2023/04/24 11:45:23;;;;;;;1.40;0.50;;;7.20;99.90;;;;;;4959384;28;20223;-92
2023/04/24 11:47:55;;;;;;;1.27;0.63;;;7.30;99.90;;;;;;4981454;28;20264;-93
2023/04/24 11:50:30;;;;;;;2.23;0.67;;;7.20;99.90;;;;;;4975067;28;20294;-91
2023/04/24 11:53:02;;;;;;;1.33;0.67;;;7.10;99.90;;;;;;4976994;28;20252;-92
2023/04/24 11:55:34;;;;;;;2.53;0.70;;;7.10;99.90;;;;;;4976185;28;20250;-91
2023/04/24 11:58:07;;;;;;;1.50;0.63;;;7.10;99.90;;;;;;4970820;28;20240;-92
2023/04/24 12:00:39;;;;;;;1.60;0.60;;;7.10;99.90;;;;;;4971602;28;20215;-91
2023/04/24 12:03:12;;;;;;;1.40;0.43;;;7.20;99.90;;;;;;4967956;28;20211;-93
2023/04/24 12:05:46;;;;;;;2.20;0.47;;;7.10;99.90;;;;;;4974599;28;20301;-92
2023/04/24 12:08:31;;;;;;;1.33;0.33;;;7.10;99.90;;;;;;4974380;28;20218;-92
2023/04/24 12:11:03;;;;;;;0.87;0.40;;;7.20;99.90;;;;;;4974025;28;20210;-92
2023/04/24 12:13:36;;;;;;;0.50;0.50;;;7.10;99.90;;;;;;4957551;28;20203;-92
2023/04/24 12:16:08;;;;;;;0.50;0.50;;;7.10;99.90;;;;;;4974281;28;20238;-91
2023/04/24 12:18:45;;;;;;;1.07;0.50;;;7.20;99.90;;;;;;4974219;28;20301;-90
2023/04/24 12:21:27;;;;;;;1.10;0.50;;;7.20;99.90;;;;;;4975176;28;20225;-92
2023/04/24 12:23:59;;;;;;;2.60;0.60;;;7.20;99.90;;;;;;4956313;28;20652;-91
2023/04/24 12:26:30;;;;;;;1.43;0.60;;;7.20;99.90;;;;;;4959229;28;20207;-91
2023/04/24 12:29:05;;;;;;;2.40;0.40;;;7.20;99.90;;;;;;4972361;28;20214;-90
2023/04/24 12:31:37;;;;;;;0.63;0.40;;;7.30;99.90;;;;;;4974471;28;20202;-92
2023/04/24 12:34:21;;;;;;;1.20;0.60;;;7.20;99.90;;;;;;4974817;28;20670;-91
2023/04/24 12:36:55;;;;;;;1.57;0.50;;;7.20;99.90;;;;;;4974627;28;20269;-92
2023/04/24 12:39:27;;;;;;;2.47;0.67;;;7.20;99.90;;;;;;4968809;28;20255;-93
2023/04/24 12:41:59;;;;;;;1.50;0.50;;;7.20;99.90;;;;;;4960413;28;20221;-91
2023/04/24 12:44:34;;;;;;;1.97;0.50;;;7.20;99.90;;;;;;4978675;28;20273;-92
2023/04/24 12:47:06;;;;;;;0.53;0.40;;;7.20;99.90;;;;;;4978986;28;20213;-92
2023/04/24 12:49:39;;;;;;;5.30;0.43;;;7.20;99.90;;;;;;4977597;28;20250;-92
2023/04/24 12:52:12;;;;;;;0.30;0.30;;;7.10;99.90;;;;;;4988046;28;20210;-92
2023/04/24 12:54:44;;;;;;;1.50;0.40;;;7.10;99.90;;;;;;4980067;28;20295;-92
2023/04/24 12:57:15;;;;;;;1.30;0.50;;;7.10;99.90;;;;;;4977776;28;20750;-91
2023/04/24 12:59:47;;;;;;;1.17;0.63;;;7.10;99.90;;;;;;4978656;28;20270;-92
2023/04/24 13:02:19;;;;;;;1.53;0.50;;;7.10;99.90;;;;;;4979784;28;20221;-92
2023/04/24 13:04:51;;;;;;;0.63;0.50;;;7.10;99.90;;;;;;4970118;28;20239;-91
2023/04/24 13:07:25;;;;;;;0.40;0.40;;;7.10;99.90;;;;;;4968296;28;20713;-92
2023/04/24 13:09:58;;;;;;;0.40;0.40;;;7.10;99.90;;;;;;4978854;28;20203;-92
2023/04/24 13:12:30;;;;;;;1.73;0.50;;;7.00;99.90;;;;;;4978832;28;20300;-92
2023/04/24 13:15:02;;;;;;;0.40;0.40;;;7.10;99.90;;;;;;4978752;28;20207;-92
2023/04/24 13:17:32;;;;;;;2.50;0.53;;;7.10;99.90;;;;;;4977199;28;20659;-91
2023/04/24 13:20:05;;;;;;;2.40;0.50;;;7.10;99.90;;;;;;4978003;28;20669;-91
2023/04/24 13:22:39;;;;;;;0.50;0.40;;;7.10;99.90;;;;;;4978465;28;20219;-91